Time;durP1;ratioP1;P1;durP2;ratioP2;P2;SDS_P1;SDS_P2;PMS_P1;PMS_P2;Temp;Humidity;BMP_temperature;BMP_pressure;BME280_temperature;BME280_humidity;BME280_pressure;Samples;Min_cycle;Max_cycle;Signal;HPM_P1;HPM_P2
2022/12/21 00:00:17;;;;;;;2.83;2.17;;;11.60;99.90;;;;;;5057337;28;20261;-75
2022/12/21 00:02:43;;;;;;;1.70;1.50;;;11.50;99.90;;;;;;5057320;28;20174;-75
2022/12/21 00:08:03;;;;;;;3.20;1.90;;;11.50;99.90;;;;;;5076756;28;20407;-76
2022/12/21 00:11:07;;;;;;;3.47;1.73;;;11.50;99.90;;;;;;5061068;28;20432;-76
2022/12/21 00:14:22;;;;;;;2.33;1.87;;;11.50;99.90;;;;;;5051663;28;20492;-76
2022/12/21 00:17:45;;;;;;;6.60;2.17;;;11.50;99.90;;;;;;5065786;28;20412;-77
2022/12/21 00:20:58;;;;;;;2.60;1.93;;;11.60;99.90;;;;;;5047818;28;20459;-76
2022/12/21 00:23:36;;;;;;;2.60;2.07;;;11.50;99.90;;;;;;5056903;28;20415;-76
2022/12/21 00:26:28;;;;;;;3.03;2.13;;;11.60;99.90;;;;;;5058640;28;20412;-76
2022/12/21 00:30:00;;;;;;;2.80;1.97;;;11.60;99.90;;;;;;5041588;28;20589;-76
2022/12/21 00:33:18;;;;;;;6.00;2.27;;;11.60;99.90;;;;;;5007732;28;20405;-76
2022/12/21 00:36:07;;;;;;;2.67;1.80;;;11.60;99.90;;;;;;5000557;28;20456;-77
2022/12/21 00:39:03;;;;;;;3.60;1.93;;;11.60;99.90;;;;;;4976424;28;20459;-77
2022/12/21 00:41:50;;;;;;;7.17;2.60;;;11.70;99.90;;;;;;4994693;28;20450;-76
2022/12/21 00:44:21;;;;;;;4.10;2.60;;;11.80;99.90;;;;;;5007787;28;20477;-75
2022/12/21 00:46:58;;;;;;;2.63;2.10;;;11.90;99.90;;;;;;5028893;28;20443;-76
2022/12/21 00:49:31;;;;;;;6.63;2.80;;;11.90;99.90;;;;;;5059893;28;20456;-76
2022/12/21 00:52:28;;;;;;;2.60;2.37;;;12.00;99.90;;;;;;5080999;28;20404;-76
2022/12/21 00:54:57;;;;;;;4.03;2.20;;;12.00;99.90;;;;;;5050294;28;20945;-76
2022/12/21 00:57:40;;;;;;;6.10;3.10;;;12.00;99.90;;;;;;5071513;28;20420;-76
2022/12/21 01:00:09;;;;;;;3.90;3.00;;;12.00;99.90;;;;;;5071655;28;20428;-76
2022/12/21 01:02:35;;;;;;;3.30;2.83;;;11.90;99.90;;;;;;5058272;28;20957;-76
2022/12/21 01:05:01;;;;;;;4.40;3.07;;;11.80;99.90;;;;;;5073520;28;20546;-75
2022/12/21 01:07:27;;;;;;;4.57;3.60;;;11.80;99.90;;;;;;5073967;28;20409;-75
2022/12/21 01:09:53;;;;;;;5.07;3.03;;;11.80;99.90;;;;;;5073916;28;20456;-75
2022/12/21 01:12:18;;;;;;;6.20;4.53;;;11.80;99.90;;;;;;5073820;28;20172;-75
2022/12/21 01:14:44;;;;;;;6.17;3.90;;;11.80;99.90;;;;;;5073445;28;20273;-75
2022/12/21 01:17:10;;;;;;;5.37;4.27;;;11.80;99.90;;;;;;5073817;28;20203;-75
2022/12/21 01:19:35;;;;;;;7.43;5.27;;;11.80;99.90;;;;;;5073556;28;20217;-75
2022/12/21 01:22:01;;;;;;;5.00;4.43;;;11.80;99.90;;;;;;5073711;28;20260;-75
2022/12/21 01:24:26;;;;;;;6.00;4.70;;;11.80;99.90;;;;;;5055411;28;20227;-75
2022/12/21 01:26:52;;;;;;;7.07;4.60;;;11.90;99.90;;;;;;5073687;28;20175;-75
2022/12/21 01:29:17;;;;;;;6.00;4.57;;;11.90;99.90;;;;;;5055489;28;20208;-75
2022/12/21 01:31:43;;;;;;;5.33;4.17;;;11.80;99.90;;;;;;5073644;28;20584;-75
2022/12/21 01:34:09;;;;;;;5.27;4.73;;;11.80;99.90;;;;;;5073269;28;20212;-75
2022/12/21 01:36:34;;;;;;;7.77;4.57;;;11.90;99.90;;;;;;5073100;28;20409;-75
2022/12/21 01:39:00;;;;;;;10.10;5.83;;;11.90;99.90;;;;;;5073234;28;20178;-75
2022/12/21 01:41:27;;;;;;;8.30;5.10;;;12.00;99.90;;;;;;5073284;28;20181;-75
2022/12/21 01:43:55;;;;;;;6.47;5.43;;;12.00;99.90;;;;;;5073203;28;20600;-75
2022/12/21 01:46:33;;;;;;;6.97;5.23;;;12.00;99.90;;;;;;5072887;28;20412;-75
2022/12/21 01:49:04;;;;;;;7.07;5.40;;;12.10;99.90;;;;;;5072986;28;20454;-75
2022/12/21 01:51:33;;;;;;;7.00;5.23;;;12.00;99.90;;;;;;5073099;28;20443;-75
2022/12/21 01:54:04;;;;;;;7.20;6.20;;;12.00;99.90;;;;;;5072159;28;20448;-75
2022/12/21 01:56:36;;;;;;;6.33;5.60;;;12.00;99.90;;;;;;5072886;28;20956;-75
2022/12/21 01:59:14;;;;;;;5.27;4.50;;;12.00;99.90;;;;;;5061574;28;20419;-75
2022/12/21 02:01:39;;;;;;;6.23;5.60;;;12.00;99.90;;;;;;5077181;28;20408;-75
2022/12/21 02:04:06;;;;;;;9.90;6.23;;;12.00;99.90;;;;;;5072759;28;20992;-75
2022/12/21 02:06:48;;;;;;;7.10;4.93;;;12.00;99.90;;;;;;5072616;28;20311;-75
2022/12/21 02:09:14;;;;;;;5.33;4.83;;;12.00;99.90;;;;;;5072766;28;20496;-75
2022/12/21 02:11:40;;;;;;;9.70;6.57;;;12.00;99.90;;;;;;5072988;28;20408;-76
2022/12/21 02:14:14;;;;;;;8.53;6.10;;;12.10;99.90;;;;;;5055867;28;20431;-76
2022/12/21 02:16:58;;;;;;;8.80;5.30;;;12.10;99.90;;;;;;5056070;28;20459;-76
2022/12/21 02:19:57;;;;;;;10.20;6.87;;;12.10;99.90;;;;;;5056015;28;20459;-76
2022/12/21 02:22:44;;;;;;;9.00;6.57;;;12.10;99.90;;;;;;5073805;28;20417;-76
2022/12/21 02:25:49;;;;;;;6.87;6.13;;;12.00;99.90;;;;;;5072730;28;20431;-75
2022/12/21 02:29:06;;;;;;;6.63;5.90;;;12.10;99.90;;;;;;5072306;28;20404;-75
2022/12/21 02:31:55;;;;;;;10.70;6.97;;;12.00;99.90;;;;;;5072335;28;20822;-75
2022/12/21 02:34:26;;;;;;;7.23;5.20;;;12.10;99.90;;;;;;5072799;28;20420;-76
2022/12/21 02:37:11;;;;;;;9.50;5.63;;;12.00;99.90;;;;;;5073438;28;20396;-76
2022/12/21 02:39:49;;;;;;;8.37;5.67;;;12.00;99.90;;;;;;5055477;28;20975;-76
2022/12/21 02:44:12;;;;;;;8.53;5.20;;;12.00;99.90;;;;;;5055440;28;20504;-76
2022/12/21 02:45:33;;;;;;;8.40;6.03;;;11.90;99.90;;;;;;5073126;28;20434;-76
2022/12/21 02:48:40;;;;;;;11.07;5.53;;;11.90;99.90;;;;;;5053884;28;20774;-76
2022/12/21 02:51:13;;;;;;;8.27;5.20;;;11.90;99.90;;;;;;5056264;28;20420;-75
2022/12/21 02:53:39;;;;;;;9.90;5.10;;;12.00;99.90;;;;;;5055658;28;20400;-76
2022/12/21 02:56:14;;;;;;;8.73;5.03;;;12.00;99.90;;;;;;5072701;28;20403;-76
2022/12/21 02:58:40;;;;;;;7.60;4.63;;;12.00;99.90;;;;;;5055507;28;20428;-75
2022/12/21 03:01:32;;;;;;;7.73;5.27;;;12.00;99.90;;;;;;5073197;28;20762;-76
2022/12/21 03:04:00;;;;;;;6.67;4.50;;;12.00;99.90;;;;;;5055251;28;20598;-76
2022/12/21 03:06:56;;;;;;;4.30;3.50;;;12.00;99.90;;;;;;5033922;28;20401;-75
2022/12/21 03:09:40;;;;;;;4.43;3.23;;;12.00;99.90;;;;;;5053212;28;20464;-75
2022/12/21 03:12:38;;;;;;;6.20;4.00;;;11.90;99.90;;;;;;5081368;28;20497;-75
2022/12/21 03:15:19;;;;;;;4.50;3.60;;;11.80;99.90;;;;;;5060537;28;20844;-75
2022/12/21 03:17:59;;;;;;;5.10;3.93;;;11.80;99.90;;;;;;5071888;28;20735;-75
2022/12/21 03:20:32;;;;;;;5.60;4.13;;;11.80;99.90;;;;;;5077838;28;20422;-75
2022/12/21 03:23:10;;;;;;;5.80;3.60;;;11.80;99.90;;;;;;5111314;28;20422;-75
2022/12/21 03:25:44;;;;;;;4.17;3.77;;;11.80;99.90;;;;;;5110236;28;20897;-75
2022/12/21 03:28:14;;;;;;;6.73;4.07;;;11.80;99.90;;;;;;5130578;28;20417;-75
2022/12/21 03:30:44;;;;;;;5.43;3.83;;;11.80;99.90;;;;;;5111154;28;20437;-75
2022/12/21 03:33:14;;;;;;;4.90;3.93;;;11.80;99.90;;;;;;5034955;28;20449;-75
2022/12/21 03:35:49;;;;;;;3.73;3.03;;;11.70;99.90;;;;;;4854206;29;20444;-76
2022/12/21 03:38:51;;;;;;;4.43;3.93;;;11.70;99.90;;;;;;4880366;29;20444;-76
2022/12/21 03:41:31;;;;;;;5.00;3.50;;;11.70;99.90;;;;;;4689216;29;20530;-76
2022/12/21 03:44:01;;;;;;;4.77;3.30;;;11.60;99.90;;;;;;4437475;31;20473;-76
2022/12/21 03:59:14;;;;;;;3.23;2.67;;;11.60;99.90;;;;;;4223590;27;25208404;-76
2022/12/21 04:02:54;;;;;;;5.07;2.83;;;11.90;99.90;;;;;;5094610;28;20419;-77
2022/12/21 04:09:32;;;;;;;3.67;2.90;;;11.70;99.90;;;;;;5091759;28;20411;-77
2022/12/21 04:21:24;;;;;;;4.10;3.07;;;11.40;99.90;;;;;;5026863;28;20398;-75
2022/12/21 04:29:18;;;;;;;3.90;2.77;;;11.40;99.90;;;;;;5089020;28;20760;-75
2022/12/21 04:31:44;;;;;;;5.87;3.17;;;11.40;99.90;;;;;;5070890;28;20415;-75
2022/12/21 04:34:09;;;;;;;3.33;2.80;;;11.40;99.90;;;;;;5088854;28;20576;-75
2022/12/21 04:39:19;;;;;;;6.10;3.77;;;11.40;99.90;;;;;;5088958;28;20219;-75
2022/12/21 04:41:44;;;;;;;4.80;3.07;;;11.40;99.90;;;;;;5088798;28;20392;-75
2022/12/21 04:44:10;;;;;;;3.90;2.77;;;11.40;99.90;;;;;;5070535;28;20212;-75
2022/12/21 04:46:35;;;;;;;5.80;3.43;;;11.40;99.90;;;;;;5088561;28;20166;-75
2022/12/21 04:49:01;;;;;;;4.97;3.47;;;11.40;99.90;;;;;;5088761;28;20636;-75
2022/12/21 04:51:26;;;;;;;4.47;2.77;;;11.40;99.90;;;;;;5088695;28;20166;-75
2022/12/21 04:53:52;;;;;;;4.53;3.40;;;11.40;99.90;;;;;;5088646;28;20212;-75
2022/12/21 04:56:18;;;;;;;4.40;3.20;;;11.40;99.90;;;;;;5070107;28;20173;-75
2022/12/21 04:58:44;;;;;;;4.37;3.03;;;11.40;99.90;;;;;;5088288;28;20451;-76
2022/12/21 05:01:16;;;;;;;2.97;2.67;;;11.40;99.90;;;;;;5088369;28;20165;-75
2022/12/21 05:03:42;;;;;;;4.50;2.97;;;11.40;99.90;;;;;;5088397;28;20403;-75
2022/12/21 05:06:09;;;;;;;4.47;2.93;;;11.40;99.90;;;;;;5070128;28;20415;-75
2022/12/21 05:08:35;;;;;;;3.70;2.97;;;11.40;99.90;;;;;;5063409;28;20774;-75
2022/12/21 05:11:13;;;;;;;4.70;2.70;;;11.40;99.90;;;;;;5054741;28;20409;-75
2022/12/21 05:13:39;;;;;;;4.70;3.30;;;11.40;99.90;;;;;;5054546;28;20416;-75
2022/12/21 05:16:07;;;;;;;5.33;3.27;;;11.40;99.90;;;;;;5054396;28;20448;-76
2022/12/21 05:18:32;;;;;;;3.10;2.73;;;11.40;99.90;;;;;;5054514;28;20457;-75
2022/12/21 05:20:58;;;;;;;3.43;2.93;;;11.40;99.90;;;;;;5054596;28;20771;-75
2022/12/21 05:23:24;;;;;;;2.50;1.80;;;11.40;99.90;;;;;;5054800;28;20704;-75
2022/12/21 05:25:49;;;;;;;3.93;2.20;;;11.30;99.90;;;;;;5049118;28;20209;-75
2022/12/21 05:28:15;;;;;;;3.10;2.67;;;11.20;99.90;;;;;;5074473;28;20182;-75
2022/12/21 05:30:40;;;;;;;3.33;2.57;;;11.10;99.90;;;;;;5074666;28;20253;-75
2022/12/21 05:33:06;;;;;;;5.13;3.23;;;11.10;99.90;;;;;;5074428;28;20479;-75
2022/12/21 05:35:31;;;;;;;3.63;2.57;;;11.10;99.90;;;;;;5074002;28;20186;-75
2022/12/21 05:37:57;;;;;;;3.77;2.60;;;11.10;99.90;;;;;;5056272;28;20198;-75
2022/12/21 05:40:22;;;;;;;3.13;2.23;;;11.10;99.90;;;;;;5056326;28;20182;-75
2022/12/21 05:42:48;;;;;;;2.70;1.90;;;11.10;99.90;;;;;;5074249;28;20158;-75
2022/12/21 05:45:14;;;;;;;3.20;2.23;;;11.10;99.90;;;;;;5073793;28;20189;-75
2022/12/21 05:47:40;;;;;;;3.83;2.40;;;11.10;99.90;;;;;;5074134;28;20259;-75
2022/12/21 05:50:06;;;;;;;3.00;2.33;;;11.10;99.90;;;;;;5056085;28;20667;-75
2022/12/21 05:52:31;;;;;;;3.13;1.90;;;11.10;99.90;;;;;;5055934;28;20409;-75
2022/12/21 05:54:57;;;;;;;3.00;2.00;;;11.20;99.90;;;;;;5073610;28;20420;-75
2022/12/21 05:57:23;;;;;;;3.40;2.23;;;11.10;99.90;;;;;;5073785;28;20216;-75
2022/12/21 05:59:48;;;;;;;3.57;2.87;;;11.20;99.90;;;;;;5055916;28;20186;-75
2022/12/21 06:02:13;;;;;;;2.23;1.87;;;11.20;99.90;;;;;;5073854;28;20177;-75
2022/12/21 06:04:39;;;;;;;2.67;2.40;;;11.20;99.90;;;;;;5055380;28;20190;-75
2022/12/21 06:07:05;;;;;;;3.93;2.70;;;11.20;99.90;;;;;;5055709;28;20639;-75
2022/12/21 06:09:30;;;;;;;2.80;2.40;;;11.20;99.90;;;;;;5055735;28;20166;-75
2022/12/21 06:11:55;;;;;;;5.37;3.13;;;11.30;99.90;;;;;;5073632;28;20166;-75
2022/12/21 06:14:21;;;;;;;3.90;3.13;;;11.30;99.90;;;;;;5073146;28;20193;-75
2022/12/21 06:16:47;;;;;;;5.77;3.77;;;11.30;99.90;;;;;;5073457;28;20194;-75
2022/12/21 06:19:12;;;;;;;5.60;3.87;;;11.30;99.90;;;;;;5073491;28;20169;-75
2022/12/21 06:21:38;;;;;;;8.77;5.07;;;11.20;99.90;;;;;;5072118;28;20162;-75
2022/12/21 06:24:03;;;;;;;4.60;3.90;;;11.10;99.90;;;;;;5072974;28;20213;-75
2022/12/21 06:26:29;;;;;;;4.77;2.80;;;11.20;99.90;;;;;;5073287;28;20179;-75
2022/12/21 06:28:54;;;;;;;5.00;3.53;;;11.20;99.90;;;;;;5055423;28;20653;-75
2022/12/21 06:31:21;;;;;;;3.77;3.00;;;11.20;99.90;;;;;;5055016;28;20181;-75
2022/12/21 06:33:46;;;;;;;3.90;2.87;;;11.20;99.90;;;;;;5073266;28;20169;-75
2022/12/21 06:36:12;;;;;;;2.60;2.40;;;11.20;99.90;;;;;;5072541;28;20419;-75
2022/12/21 06:38:38;;;;;;;4.10;2.80;;;11.20;99.90;;;;;;5072861;28;20716;-74
2022/12/21 06:41:07;;;;;;;6.30;2.07;;;11.20;99.90;;;;;;5073006;28;20168;-75
2022/12/21 06:43:35;;;;;;;3.23;2.30;;;11.20;99.90;;;;;;5054945;28;20409;-75
2022/12/21 06:46:12;;;;;;;3.70;3.00;;;11.20;99.90;;;;;;5072626;28;20440;-75
2022/12/21 06:48:38;;;;;;;6.60;3.90;;;11.20;99.90;;;;;;5072980;28;20726;-75
2022/12/21 06:51:17;;;;;;;4.47;3.50;;;11.10;99.90;;;;;;5072750;28;20796;-75
2022/12/21 06:53:44;;;;;;;4.17;2.93;;;11.10;99.90;;;;;;5072673;28;20405;-75
2022/12/21 06:56:14;;;;;;;5.57;3.20;;;11.10;99.90;;;;;;5054616;28;20759;-74
2022/12/21 06:58:40;;;;;;;3.60;3.00;;;11.20;99.90;;;;;;5072514;28;20452;-75
2022/12/21 07:01:08;;;;;;;4.43;2.53;;;11.20;99.90;;;;;;5054784;28;20432;-75
2022/12/21 07:03:33;;;;;;;4.27;2.73;;;11.30;99.90;;;;;;5054654;28;20459;-75
2022/12/21 07:06:00;;;;;;;3.33;2.70;;;11.30;99.90;;;;;;5054355;28;20950;-75
2022/12/21 07:08:26;;;;;;;3.20;2.30;;;11.30;99.90;;;;;;5072494;28;20245;-76
2022/12/21 07:11:03;;;;;;;3.40;2.30;;;11.20;99.90;;;;;;5072533;28;20466;-75
2022/12/21 07:13:29;;;;;;;3.20;2.50;;;11.20;99.90;;;;;;5072161;28;20173;-75
2022/12/21 07:15:56;;;;;;;3.93;2.60;;;11.10;99.90;;;;;;5071897;28;20432;-75
2022/12/21 07:18:22;;;;;;;3.27;2.50;;;11.00;99.90;;;;;;5072286;28;20455;-75
2022/12/21 07:20:48;;;;;;;4.20;3.00;;;10.80;99.90;;;;;;5072354;28;20404;-75
2022/12/21 07:23:14;;;;;;;3.50;2.90;;;10.80;99.90;;;;;;5072398;28;20917;-75
2022/12/21 07:25:40;;;;;;;5.07;2.90;;;10.90;99.90;;;;;;5071910;28;20675;-75
2022/12/21 07:28:05;;;;;;;4.47;3.17;;;10.80;99.90;;;;;;5072179;28;20401;-75
2022/12/21 07:30:31;;;;;;;5.63;4.07;;;10.80;99.90;;;;;;5054311;28;20404;-76
2022/12/21 07:32:57;;;;;;;4.23;3.17;;;10.80;99.90;;;;;;5072054;28;20192;-75
2022/12/21 07:35:24;;;;;;;3.83;2.30;;;10.80;99.90;;;;;;5053962;28;20432;-75
2022/12/21 07:37:50;;;;;;;3.50;2.80;;;10.80;99.90;;;;;;5072054;28;20197;-75
2022/12/21 07:40:17;;;;;;;8.30;2.90;;;10.70;99.90;;;;;;5072184;28;20432;-75
2022/12/21 07:42:46;;;;;;;5.97;2.67;;;10.70;99.90;;;;;;5071973;28;20401;-75
2022/12/21 07:45:12;;;;;;;3.10;2.30;;;10.60;99.90;;;;;;5053466;28;20421;-75
2022/12/21 07:47:38;;;;;;;4.20;2.43;;;10.60;99.90;;;;;;5072036;28;20455;-75
2022/12/21 07:50:05;;;;;;;3.70;2.83;;;10.60;99.90;;;;;;5072082;28;20929;-75
2022/12/21 07:52:31;;;;;;;3.40;2.63;;;10.50;99.90;;;;;;5071973;28;20173;-75
2022/12/21 07:54:57;;;;;;;3.80;2.70;;;10.60;99.90;;;;;;5071587;28;20931;-75
2022/12/21 07:57:22;;;;;;;4.73;2.20;;;10.60;99.90;;;;;;5071767;28;20444;-76
2022/12/21 07:59:48;;;;;;;2.63;1.93;;;10.70;99.90;;;;;;5071837;28;20417;-75
2022/12/21 08:02:13;;;;;;;3.97;2.53;;;10.70;99.90;;;;;;5053923;28;20221;-75
2022/12/21 08:04:39;;;;;;;2.10;1.90;;;10.90;99.90;;;;;;5071415;28;20602;-75
2022/12/21 08:07:05;;;;;;;4.30;2.60;;;10.90;99.90;;;;;;5071844;28;20207;-75
2022/12/21 08:09:32;;;;;;;4.50;3.70;;;11.00;99.90;;;;;;5053869;28;20177;-75
2022/12/21 08:11:57;;;;;;;2.07;1.70;;;11.10;99.90;;;;;;5053746;28;20454;-75
2022/12/21 08:14:23;;;;;;;2.63;1.63;;;11.10;99.90;;;;;;5071308;28;20420;-76
2022/12/21 08:16:48;;;;;;;3.90;2.53;;;11.00;99.90;;;;;;5071668;28;20193;-75
2022/12/21 08:19:14;;;;;;;2.57;2.10;;;11.00;99.90;;;;;;5053812;28;20185;-75
2022/12/21 08:21:39;;;;;;;3.37;2.27;;;11.10;99.90;;;;;;5071660;28;20232;-76
2022/12/21 08:24:05;;;;;;;4.30;2.10;;;11.30;99.90;;;;;;5071596;28;20182;-75
2022/12/21 08:26:30;;;;;;;3.33;1.77;;;11.40;99.90;;;;;;5071379;28;20675;-76
2022/12/21 08:28:57;;;;;;;3.37;2.57;;;11.50;99.90;;;;;;5071660;28;20227;-75
2022/12/21 08:31:22;;;;;;;4.13;2.00;;;11.40;99.90;;;;;;5071630;28;20162;-75
2022/12/21 08:33:48;;;;;;;2.93;2.03;;;11.50;99.90;;;;;;5071624;28;20415;-75
2022/12/21 08:36:22;;;;;;;2.50;1.67;;;11.60;99.90;;;;;;5071271;28;20174;-75
2022/12/21 08:38:48;;;;;;;7.47;3.90;;;11.70;99.90;;;;;;5071542;28;20190;-75
2022/12/21 08:41:14;;;;;;;4.63;2.60;;;11.70;99.90;;;;;;5071435;28;20404;-75
2022/12/21 08:43:40;;;;;;;4.23;1.87;;;11.50;99.90;;;;;;5072000;28;20457;-75
2022/12/21 08:46:08;;;;;;;2.77;2.10;;;11.60;99.90;;;;;;5057128;28;20408;-75
2022/12/21 08:48:35;;;;;;;4.37;2.27;;;11.80;99.90;;;;;;5075318;28;20535;-76
2022/12/21 08:51:01;;;;;;;8.80;2.10;;;11.90;99.90;;;;;;5075065;28;20762;-76
2022/12/21 08:53:27;;;;;;;1.60;1.40;;;11.90;99.90;;;;;;5075221;28;20401;-76
2022/12/21 08:55:53;;;;;;;4.20;2.17;;;11.90;99.90;;;;;;5074304;28;20448;-75
2022/12/21 08:58:19;;;;;;;2.40;2.20;;;11.90;99.90;;;;;;5056906;28;20464;-76
2022/12/21 09:00:46;;;;;;;3.57;2.50;;;11.80;99.90;;;;;;5074903;28;20404;-76
2022/12/21 09:03:11;;;;;;;6.07;2.50;;;11.80;99.90;;;;;;5057250;28;20662;-76
2022/12/21 09:05:37;;;;;;;5.63;2.63;;;11.80;99.90;;;;;;5074379;28;20420;-75
2022/12/21 09:08:04;;;;;;;3.33;2.43;;;11.90;99.90;;;;;;5074816;28;20205;-76
2022/12/21 09:10:32;;;;;;;4.03;2.83;;;11.90;99.90;;;;;;5056695;28;20416;-75
2022/12/21 09:12:57;;;;;;;6.00;2.70;;;11.90;99.90;;;;;;5074857;28;20412;-75
2022/12/21 09:15:23;;;;;;;5.50;3.40;;;12.00;99.90;;;;;;5074372;28;20428;-75
2022/12/21 09:17:49;;;;;;;5.40;3.90;;;12.00;99.90;;;;;;5056715;28;20210;-76
2022/12/21 09:20:15;;;;;;;4.27;3.87;;;12.00;99.90;;;;;;5075018;28;20209;-76
2022/12/21 09:22:40;;;;;;;4.50;3.80;;;12.10;99.90;;;;;;5074618;28;20436;-76
2022/12/21 09:25:07;;;;;;;8.00;4.40;;;12.20;99.90;;;;;;5074169;28;20190;-75
2022/12/21 09:27:33;;;;;;;5.00;3.83;;;12.20;99.90;;;;;;5074534;28;20170;-76
2022/12/21 09:29:59;;;;;;;5.27;4.23;;;12.20;99.90;;;;;;5074464;28;20435;-76
2022/12/21 09:32:24;;;;;;;10.03;6.17;;;12.30;99.90;;;;;;5056483;28;20174;-75
2022/12/21 09:34:50;;;;;;;12.63;5.60;;;12.30;99.90;;;;;;5055872;28;20232;-75
2022/12/21 09:37:16;;;;;;;6.17;4.50;;;12.40;99.90;;;;;;5074016;28;20190;-75
2022/12/21 09:39:42;;;;;;;5.93;4.10;;;12.30;99.90;;;;;;5074207;28;20411;-75
2022/12/21 09:42:31;;;;;;;7.30;5.20;;;12.40;99.90;;;;;;5074261;28;20228;-75
2022/12/21 09:45:05;;;;;;;6.43;5.03;;;12.40;99.90;;;;;;5073987;28;20186;-75
2022/12/21 09:47:49;;;;;;;8.47;6.00;;;12.60;99.90;;;;;;5074263;28;20408;-74
2022/12/21 09:50:22;;;;;;;8.40;5.00;;;13.00;99.90;;;;;;5074109;28;20436;-75
2022/12/21 09:52:54;;;;;;;11.20;5.27;;;13.60;99.90;;;;;;5074092;28;20483;-75
2022/12/21 09:55:22;;;;;;;9.87;5.33;;;13.70;99.90;;;;;;5055624;28;20439;-76
2022/12/21 09:57:51;;;;;;;7.80;4.43;;;14.10;99.90;;;;;;5073575;28;21031;-75
2022/12/21 10:00:18;;;;;;;7.77;5.30;;;14.20;99.90;;;;;;5073688;28;20412;-75
2022/12/21 10:03:21;;;;;;;7.07;5.00;;;14.40;99.90;;;;;;5073672;28;20929;-75
2022/12/21 10:06:05;;;;;;;7.97;4.80;;;15.00;99.90;;;;;;5058701;28;20440;-75
2022/12/21 10:09:06;;;;;;;8.57;5.93;;;15.00;99.90;;;;;;5053642;28;20401;-75
2022/12/21 10:11:50;;;;;;;8.47;4.57;;;14.90;99.90;;;;;;5053232;28;20917;-72
2022/12/21 10:14:35;;;;;;;10.77;7.40;;;16.40;99.90;;;;;;5052639;28;20417;-75
2022/12/21 10:17:24;;;;;;;5.90;4.53;;;17.80;99.90;;;;;;5053198;28;20448;-75
2022/12/21 10:20:16;;;;;;;10.17;5.07;;;19.10;99.90;;;;;;5053395;28;20445;-75
2022/12/21 10:22:53;;;;;;;5.77;4.00;;;19.70;99.90;;;;;;5052469;28;20408;-75
2022/12/21 10:25:19;;;;;;;7.10;4.50;;;19.40;99.90;;;;;;5034626;28;20899;-75
2022/12/21 10:28:26;;;;;;;7.47;4.30;;;18.90;99.90;;;;;;5052668;28;20480;-75
2022/12/21 10:31:04;;;;;;;4.10;2.97;;;18.00;99.90;;;;;;5039967;28;20182;-75
2022/12/21 10:33:30;;;;;;;7.03;5.10;;;17.30;99.90;;;;;;5035387;28;20405;-75
2022/12/21 10:36:00;;;;;;;6.27;5.47;;;17.00;99.90;;;;;;5034739;28;20448;-75
2022/12/21 10:38:31;;;;;;;7.20;4.00;;;17.10;99.90;;;;;;5052694;28;20507;-75
2022/12/21 10:40:56;;;;;;;9.13;4.60;;;17.50;99.90;;;;;;5052813;28;20432;-75
2022/12/21 10:43:22;;;;;;;4.90;3.50;;;18.00;99.90;;;;;;5034898;28;20413;-75
2022/12/21 10:45:51;;;;;;;11.10;4.87;;;19.00;99.90;;;;;;5052291;28;20228;-76
2022/12/21 10:48:18;;;;;;;6.17;4.00;;;20.10;99.90;;;;;;5052333;28;20409;-75
2022/12/21 10:50:50;;;;;;;9.00;3.23;;;21.50;99.90;;;;;;5052534;28;20428;-76
2022/12/21 10:53:26;;;;;;;3.23;2.27;;;22.80;99.90;;;;;;5052493;28;20910;-76
2022/12/21 10:55:56;;;;;;;10.87;3.03;;;22.90;97.90;;;;;;5052166;28;20428;-76
2022/12/21 10:58:25;;;;;;;12.47;3.10;;;22.70;93.00;;;;;;5052132;28;20607;-76
2022/12/21 11:01:16;;;;;;;2.67;2.00;;;21.80;91.00;;;;;;5052320;28;20402;-75
2022/12/21 11:03:42;;;;;;;5.80;3.23;;;20.70;91.10;;;;;;5052180;28;20444;-75
2022/12/21 11:06:17;;;;;;;4.27;2.60;;;19.70;92.50;;;;;;5069105;28;20743;-75
2022/12/21 11:08:47;;;;;;;5.17;3.23;;;18.90;95.40;;;;;;5071185;28;20201;-75
2022/12/21 11:11:32;;;;;;;6.03;2.70;;;18.10;98.80;;;;;;5071944;28;20415;-75
2022/12/21 11:14:03;;;;;;;4.83;2.90;;;17.30;99.90;;;;;;5052401;28;20429;-75
2022/12/21 11:16:31;;;;;;;6.10;2.97;;;17.10;99.90;;;;;;5034345;28;20421;-75
2022/12/21 11:19:02;;;;;;;4.50;3.30;;;16.70;99.90;;;;;;5034318;28;20449;-75
2022/12/21 11:21:33;;;;;;;6.47;3.80;;;16.00;99.90;;;;;;5052404;28;20398;-75
2022/12/21 11:24:27;;;;;;;4.90;3.13;;;15.70;99.90;;;;;;5034215;28;20441;-75
2022/12/21 11:27:01;;;;;;;4.60;2.93;;;15.30;99.90;;;;;;5034439;28;20755;-75
2022/12/21 11:29:29;;;;;;;5.30;3.47;;;14.80;99.90;;;;;;5052342;28;20736;-75
2022/12/21 11:31:56;;;;;;;7.53;3.67;;;14.50;99.90;;;;;;5052271;28;20420;-75
2022/12/21 11:34:37;;;;;;;10.43;3.00;;;14.40;99.90;;;;;;5051795;28;20921;-75
2022/12/21 11:37:05;;;;;;;7.43;4.30;;;14.50;99.90;;;;;;5052109;28;20449;-75
2022/12/21 11:39:31;;;;;;;4.30;2.30;;;15.00;99.90;;;;;;5052073;28;20405;-75
2022/12/21 11:41:58;;;;;;;5.57;2.63;;;16.30;99.90;;;;;;5052061;28;20398;-75
2022/12/21 11:44:28;;;;;;;5.70;2.50;;;17.50;99.90;;;;;;5051749;28;20186;-75
2022/12/21 11:47:22;;;;;;;3.20;2.40;;;18.70;99.90;;;;;;5051982;28;20784;-76
2022/12/21 11:50:21;;;;;;;2.50;1.97;;;18.40;99.90;;;;;;5051750;28;20436;-75
2022/12/21 11:53:15;;;;;;;4.93;2.67;;;17.70;99.90;;;;;;5051867;28;20390;-75
2022/12/21 11:56:16;;;;;;;4.20;1.90;;;16.90;99.90;;;;;;5049124;28;20516;-75
2022/12/21 11:59:03;;;;;;;6.53;2.10;;;16.90;99.90;;;;;;5047338;28;20560;-76
2022/12/21 12:01:55;;;;;;;3.07;1.70;;;16.70;99.90;;;;;;5051609;28;20397;-76
2022/12/21 12:04:23;;;;;;;6.60;1.87;;;16.50;99.90;;;;;;5054162;28;20432;-75
2022/12/21 12:07:08;;;;;;;3.33;1.90;;;16.00;99.90;;;;;;5071719;28;20397;-75
2022/12/21 12:09:33;;;;;;;2.90;2.00;;;16.00;99.90;;;;;;5071838;28;20534;-75
2022/12/21 12:12:29;;;;;;;4.13;1.93;;;15.80;99.90;;;;;;5071716;28;20487;-75
2022/12/21 12:15:15;;;;;;;7.97;5.27;;;15.70;99.90;;;;;;5071415;28;20205;-75
2022/12/21 12:17:59;;;;;;;3.50;1.93;;;15.30;99.90;;;;;;5053701;28;20463;-75
2022/12/21 12:20:43;;;;;;;3.53;1.80;;;15.20;99.90;;;;;;5074838;28;20412;-75
2022/12/21 12:23:30;;;;;;;5.97;2.57;;;15.70;99.90;;;;;;5055626;28;20412;-75
2022/12/21 12:26:17;;;;;;;3.03;1.90;;;16.40;99.90;;;;;;5037345;28;20421;-75
2022/12/21 12:28:42;;;;;;;3.40;1.73;;;17.80;99.90;;;;;;5055509;28;20419;-76
2022/12/21 12:31:30;;;;;;;3.37;1.63;;;18.10;99.90;;;;;;5038004;28;20409;-75
2022/12/21 12:34:14;;;;;;;2.23;1.70;;;18.20;99.90;;;;;;5055439;28;20183;-75
2022/12/21 12:36:43;;;;;;;4.60;2.20;;;17.50;99.90;;;;;;5055328;28;20401;-75
2022/12/21 12:39:14;;;;;;;3.50;1.87;;;17.10;99.90;;;;;;5055425;28;20397;-75
2022/12/21 12:42:06;;;;;;;4.03;1.63;;;16.70;99.90;;;;;;5055358;28;20489;-75
2022/12/21 12:44:50;;;;;;;3.80;2.00;;;16.30;99.90;;;;;;5054864;28;20525;-75
2022/12/21 12:47:30;;;;;;;2.80;1.60;;;15.90;99.90;;;;;;5055277;28;20400;-75
2022/12/21 12:50:14;;;;;;;8.70;2.63;;;15.40;99.90;;;;;;5055217;28;20758;-75
2022/12/21 12:53:01;;;;;;;3.00;1.83;;;15.40;99.90;;;;;;5037246;28;20504;-75
2022/12/21 12:55:49;;;;;;;2.80;2.10;;;15.40;99.90;;;;;;5054795;28;20424;-75
2022/12/21 12:58:24;;;;;;;5.00;1.90;;;15.70;99.90;;;;;;5036937;28;20475;-75
2022/12/21 13:01:07;;;;;;;2.00;1.67;;;15.90;99.90;;;;;;5054959;28;20809;-75
2022/12/21 13:03:51;;;;;;;8.40;1.90;;;16.20;99.90;;;;;;5054985;28;20452;-75
2022/12/21 13:06:26;;;;;;;6.80;2.13;;;16.30;99.90;;;;;;5054596;28;20905;-75
2022/12/21 13:09:10;;;;;;;3.87;1.87;;;15.90;99.90;;;;;;5054801;28;20408;-75
2022/12/21 13:11:41;;;;;;;3.20;1.50;;;15.60;99.90;;;;;;5036893;28;20466;-75
2022/12/21 13:14:51;;;;;;;3.20;1.60;;;15.00;99.90;;;;;;5055500;28;20449;-76
2022/12/21 13:17:47;;;;;;;4.37;1.87;;;14.60;99.90;;;;;;5056466;28;20990;-76
2022/12/21 13:20:19;;;;;;;5.50;2.00;;;14.30;99.90;;;;;;5041010;28;20421;-77
2022/12/21 13:22:54;;;;;;;4.90;2.30;;;14.20;99.90;;;;;;5038446;28;20417;-76
2022/12/21 13:25:36;;;;;;;6.17;2.07;;;14.20;99.90;;;;;;5055883;28;20993;-76
2022/12/21 13:28:12;;;;;;;4.87;2.37;;;14.10;99.90;;;;;;5052844;28;20805;-76
2022/12/21 13:30:46;;;;;;;3.23;2.13;;;14.00;99.90;;;;;;5042236;28;20446;-76
2022/12/21 13:33:18;;;;;;;3.73;2.00;;;13.60;99.90;;;;;;5058218;28;20419;-76
2022/12/21 13:36:13;;;;;;;2.40;1.50;;;13.30;99.90;;;;;;5045922;28;20432;-76
2022/12/21 13:39:17;;;;;;;2.13;1.47;;;13.10;99.90;;;;;;5075869;28;20460;-76
2022/12/21 13:41:57;;;;;;;6.90;3.63;;;12.90;99.90;;;;;;5075395;28;20413;-76
2022/12/21 13:44:40;;;;;;;1.60;1.10;;;12.70;99.90;;;;;;5043590;28;20456;-76
2022/12/21 13:47:10;;;;;;;3.53;1.10;;;12.60;99.90;;;;;;5075688;28;20427;-76
2022/12/21 13:50:33;;;;;;;2.63;1.30;;;12.60;99.90;;;;;;5075608;28;20752;-76
2022/12/21 13:53:37;;;;;;;2.00;1.23;;;12.60;99.90;;;;;;5075772;28;20492;-76
2022/12/21 13:56:41;;;;;;;2.97;1.27;;;12.60;99.90;;;;;;5074554;28;20416;-76
2022/12/21 13:59:26;;;;;;;4.33;0.80;;;12.60;99.90;;;;;;5074401;28;20442;-76